createdAt,value
2023-01-06T00:00:27.485Z,9.20
2023-01-06T00:02:54.178Z,9.20
2023-01-06T00:05:20.881Z,9.00
2023-01-06T00:07:51.712Z,9.20
2023-01-06T00:10:19.129Z,9.30
2023-01-06T00:12:47.171Z,9.20
2023-01-06T00:15:14.501Z,9.30
2023-01-06T00:17:41.624Z,9.30
2023-01-06T00:20:08.921Z,9.30
2023-01-06T00:22:35.669Z,9.30
2023-01-06T00:25:02.397Z,9.30
2023-01-06T00:27:31.428Z,9.30
2023-01-06T00:29:58.160Z,9.30
2023-01-06T00:32:24.872Z,9.30
2023-01-06T00:34:51.488Z,9.30
2023-01-06T00:37:18.149Z,9.30
2023-01-06T00:39:44.792Z,9.30
2023-01-06T00:42:11.482Z,9.30
2023-01-06T00:44:39.190Z,9.30
2023-01-06T00:47:08.329Z,9.30
2023-01-06T00:49:35.319Z,9.30
2023-01-06T00:52:02.472Z,9.30
2023-01-06T00:54:29.200Z,9.30
2023-01-06T00:56:56.052Z,9.30
2023-01-06T00:59:24.130Z,9.30
2023-01-06T01:01:53.272Z,9.40
2023-01-06T01:04:20.538Z,9.40
2023-01-06T01:06:48.180Z,9.40
2023-01-06T01:09:21.901Z,9.40
2023-01-06T01:12:07.616Z,9.40
2023-01-06T01:14:34.495Z,9.40
2023-01-06T01:17:01.215Z,9.40
2023-01-06T01:19:28.582Z,9.40
2023-01-06T01:21:55.488Z,9.40
2023-01-06T01:24:22.597Z,9.40
2023-01-06T01:26:49.375Z,9.40
2023-01-06T01:29:17.811Z,9.40
2023-01-06T01:31:44.652Z,9.40
2023-01-06T01:34:12.804Z,9.40
2023-01-06T01:36:44.139Z,9.40
2023-01-06T01:39:12.173Z,9.40
2023-01-06T01:41:38.852Z,9.40
2023-01-06T01:44:43.055Z,9.40
2023-01-06T01:47:10.954Z,9.40
2023-01-06T01:49:40.224Z,9.40
2023-01-06T01:52:08.287Z,9.50
2023-01-06T01:54:35.862Z,9.40
2023-01-06T01:57:12.043Z,9.50
2023-01-06T01:59:40.346Z,9.40
2023-01-06T02:02:07.174Z,9.50
2023-01-06T02:04:37.306Z,9.40
2023-01-06T02:07:04.773Z,9.40
2023-01-06T02:09:33.200Z,9.50
2023-01-06T02:11:59.894Z,9.50
2023-01-06T02:14:28.298Z,9.40
2023-01-06T02:17:13.377Z,9.40
2023-01-06T02:19:52.932Z,9.40
2023-01-06T02:22:44.627Z,9.50
2023-01-06T02:25:32.457Z,9.50
2023-01-06T02:28:11.672Z,9.50
2023-01-06T02:31:20.509Z,9.50
2023-01-06T02:33:57.168Z,9.50
2023-01-06T02:36:42.382Z,9.50
2023-01-06T02:39:37.262Z,9.50
2023-01-06T02:42:43.195Z,9.50
2023-01-06T02:45:09.919Z,9.50
2023-01-06T02:48:13.072Z,9.60
2023-01-06T02:50:39.774Z,9.60
2023-01-06T02:53:26.843Z,9.60
2023-01-06T02:55:55.189Z,10.30
2023-01-06T02:58:54.888Z,9.60
2023-01-06T03:01:41.399Z,9.60
2023-01-06T03:04:12.970Z,9.60
2023-01-06T03:06:44.729Z,9.60
2023-01-06T03:09:14.499Z,9.60
2023-01-06T03:11:42.603Z,9.60
2023-01-06T03:14:21.965Z,9.60
2023-01-06T03:16:48.662Z,9.60
2023-01-06T03:19:15.647Z,9.60
2023-01-06T03:21:44.620Z,9.60
2023-01-06T03:24:12.499Z,9.60
2023-01-06T03:26:39.523Z,9.60
2023-01-06T03:29:09.083Z,9.70
2023-01-06T03:31:42.108Z,9.70
2023-01-06T03:34:27.511Z,9.70
2023-01-06T03:37:04.315Z,9.70
2023-01-06T03:39:33.933Z,9.70
2023-01-06T03:42:35.827Z,9.70
2023-01-06T03:45:12.807Z,9.70
2023-01-06T03:47:52.486Z,9.60
2023-01-06T03:50:49.737Z,9.60
2023-01-06T03:53:36.805Z,9.50
2023-01-06T03:56:18.512Z,9.40
2023-01-06T03:58:46.776Z,9.40
2023-01-06T04:01:14.580Z,9.40
2023-01-06T04:03:45.302Z,9.30
2023-01-06T04:06:12.367Z,9.30
2023-01-06T04:08:39.026Z,9.30
2023-01-06T04:11:05.646Z,9.30
2023-01-06T04:13:32.279Z,9.30
2023-01-06T04:15:58.940Z,9.30
2023-01-06T04:18:25.607Z,9.30
2023-01-06T04:20:52.459Z,9.20
2023-01-06T04:23:19.201Z,9.30
2023-01-06T04:25:45.871Z,9.30
2023-01-06T04:28:12.519Z,9.20
2023-01-06T04:30:39.215Z,9.20
2023-01-06T04:33:05.959Z,9.20
2023-01-06T04:35:32.600Z,9.20
2023-01-06T04:38:02.733Z,9.20
2023-01-06T04:40:29.385Z,9.20
2023-01-06T04:43:04.945Z,9.10
2023-01-06T04:45:32.544Z,9.10
2023-01-06T04:47:59.308Z,9.10
2023-01-06T04:50:26.015Z,9.10
2023-01-06T04:52:52.697Z,9.10
2023-01-06T04:55:19.408Z,9.00
2023-01-06T04:57:46.112Z,9.00
2023-01-06T05:00:13.441Z,9.00
2023-01-06T05:02:40.143Z,9.00
2023-01-06T05:05:07.226Z,9.00
2023-01-06T05:07:33.971Z,9.00
2023-01-06T05:10:00.652Z,9.00
2023-01-06T05:12:27.360Z,9.00
2023-01-06T05:14:54.056Z,9.00
2023-01-06T05:17:20.707Z,9.00
2023-01-06T05:19:47.369Z,9.10
2023-01-06T05:22:14.280Z,9.10
2023-01-06T05:24:40.910Z,9.10
2023-01-06T05:27:07.699Z,9.10
2023-01-06T05:29:35.370Z,9.10
2023-01-06T05:32:02.653Z,9.10
2023-01-06T05:34:29.333Z,9.10
2023-01-06T05:36:56.713Z,9.10
2023-01-06T05:39:23.519Z,9.30
2023-01-06T05:41:50.360Z,9.10
2023-01-06T05:44:18.843Z,9.20
2023-01-06T05:46:46.641Z,9.20
2023-01-06T05:49:13.444Z,9.20
2023-01-06T05:51:40.111Z,9.20
2023-01-06T05:54:10.075Z,9.20
2023-01-06T05:56:37.109Z,9.20
2023-01-06T05:59:03.838Z,9.20
2023-01-06T06:01:31.784Z,9.20
2023-01-06T06:03:58.840Z,9.20
2023-01-06T06:06:27.274Z,9.20
2023-01-06T06:08:53.975Z,9.20
2023-01-06T06:11:22.473Z,9.10
2023-01-06T06:13:52.317Z,9.20
2023-01-06T06:16:21.059Z,9.10
2023-01-06T06:18:53.549Z,9.10
2023-01-06T06:21:25.516Z,9.10
2023-01-06T06:23:56.667Z,9.10
2023-01-06T06:26:23.822Z,9.10
2023-01-06T06:28:50.628Z,9.10
2023-01-06T06:31:22.909Z,9.10
2023-01-06T06:33:51.547Z,9.10
2023-01-06T06:36:18.799Z,9.00
2023-01-06T06:38:47.108Z,9.00
2023-01-06T06:41:14.259Z,9.00
2023-01-06T06:43:41.232Z,8.90
2023-01-06T06:46:08.554Z,8.80
2023-01-06T06:48:35.564Z,8.70
2023-01-06T06:51:10.327Z,8.60
2023-01-06T06:53:37.083Z,8.60
2023-01-06T06:56:08.023Z,8.50
2023-01-06T06:58:35.907Z,8.50
2023-01-06T07:01:07.425Z,8.50
2023-01-06T07:03:34.165Z,8.40
2023-01-06T07:06:03.101Z,8.40
2023-01-06T07:08:30.346Z,8.40
2023-01-06T07:10:57.054Z,8.40
2023-01-06T07:13:23.727Z,8.40
2023-01-06T07:15:50.401Z,8.40
2023-01-06T07:18:18.018Z,8.40
2023-01-06T07:20:50.775Z,8.40
2023-01-06T07:23:17.543Z,8.40
2023-01-06T07:25:44.455Z,8.40
2023-01-06T07:28:11.156Z,8.40
2023-01-06T07:30:38.217Z,8.20
2023-01-06T07:33:04.975Z,8.10
2023-01-06T07:35:31.786Z,7.90
2023-01-06T07:38:05.935Z,7.80
2023-01-06T07:40:32.577Z,7.80
2023-01-06T07:43:06.866Z,7.70
2023-01-06T07:45:33.914Z,7.60
2023-01-06T07:48:00.630Z,7.50
2023-01-06T07:50:27.972Z,7.50
2023-01-06T07:52:57.609Z,7.50
2023-01-06T07:55:24.569Z,7.40
2023-01-06T07:57:51.549Z,7.40
2023-01-06T08:00:18.492Z,7.40
2023-01-06T08:02:45.355Z,7.30
2023-01-06T08:05:12.096Z,7.30
2023-01-06T08:07:38.824Z,7.30
2023-01-06T08:10:06.019Z,7.30
2023-01-06T08:12:32.803Z,7.30
2023-01-06T08:14:59.607Z,7.30
2023-01-06T08:17:26.280Z,7.30
2023-01-06T08:19:53.163Z,7.30
2023-01-06T08:22:19.904Z,7.30
2023-01-06T08:24:46.573Z,7.30
2023-01-06T08:27:13.265Z,7.30
2023-01-06T08:29:39.967Z,7.30
2023-01-06T08:32:10.856Z,7.30
2023-01-06T08:34:38.226Z,7.30
2023-01-06T08:37:05.091Z,7.30
2023-01-06T08:39:31.995Z,7.40
2023-01-06T08:41:58.702Z,7.40
2023-01-06T08:44:25.432Z,7.40
2023-01-06T08:46:52.125Z,7.50
2023-01-06T08:49:18.805Z,7.60
2023-01-06T08:51:45.499Z,7.60
2023-01-06T08:54:14.206Z,7.70
2023-01-06T08:56:41.000Z,7.70
2023-01-06T08:59:07.598Z,7.80
2023-01-06T09:01:37.080Z,7.80
2023-01-06T09:04:05.993Z,7.80
2023-01-06T09:06:33.236Z,7.90
2023-01-06T09:09:00.261Z,7.90
2023-01-06T09:11:27.409Z,7.90
2023-01-06T09:13:54.287Z,8.00
2023-01-06T09:16:21.736Z,8.00
2023-01-06T09:18:50.072Z,8.00
2023-01-06T09:21:21.723Z,8.10
2023-01-06T09:23:48.853Z,8.10
2023-01-06T09:26:16.638Z,8.10
2023-01-06T09:28:43.594Z,8.10
2023-01-06T09:31:10.829Z,8.10
2023-01-06T09:33:37.557Z,8.10
2023-01-06T09:36:04.585Z,8.10
2023-01-06T09:38:31.339Z,8.10
2023-01-06T09:41:33.641Z,7.20
2023-01-06T09:44:11.185Z,8.10
2023-01-06T09:46:40.657Z,8.10
2023-01-06T09:49:15.673Z,8.10
2023-01-06T09:51:42.478Z,8.10
2023-01-06T09:54:19.534Z,8.10
2023-01-06T09:56:51.475Z,8.10
2023-01-06T09:59:30.430Z,8.10
2023-01-06T10:01:59.700Z,8.10
2023-01-06T10:04:29.204Z,8.10
2023-01-06T10:07:20.752Z,8.20
2023-01-06T10:09:59.513Z,8.20
2023-01-06T10:12:41.080Z,8.30
2023-01-06T10:15:41.794Z,8.30
2023-01-06T10:18:38.689Z,8.40
2023-01-06T10:21:15.528Z,8.40
2023-01-06T10:23:47.959Z,8.40
2023-01-06T10:26:29.851Z,8.40
2023-01-06T10:29:14.720Z,8.40
2023-01-06T10:31:45.179Z,8.40
2023-01-06T10:34:23.787Z,8.40
2023-01-06T10:36:59.774Z,8.50
2023-01-06T10:39:27.842Z,8.50
2023-01-06T10:42:25.269Z,8.50
2023-01-06T10:44:51.909Z,8.60
2023-01-06T10:47:26.097Z,8.60
2023-01-06T10:49:52.876Z,8.60
2023-01-06T10:52:20.968Z,8.60
2023-01-06T10:54:48.685Z,8.60
2023-01-06T10:57:22.320Z,8.60
2023-01-06T11:00:14.725Z,8.60
2023-01-06T11:02:52.255Z,8.60
2023-01-06T11:05:22.755Z,8.50
2023-01-06T11:07:58.771Z,8.60
2023-01-06T11:10:31.376Z,8.50
2023-01-06T11:13:00.153Z,8.60
2023-01-06T11:15:38.453Z,8.60
2023-01-06T11:18:06.399Z,8.60
2023-01-06T11:20:35.003Z,8.60
2023-01-06T11:23:22.711Z,8.60
2023-01-06T11:26:02.402Z,8.60
2023-01-06T11:28:30.613Z,8.60
2023-01-06T11:31:03.925Z,8.60
2023-01-06T11:33:32.557Z,8.60
2023-01-06T11:36:07.166Z,8.60
2023-01-06T11:38:44.479Z,8.70
2023-01-06T11:41:12.847Z,8.80
2023-01-06T11:43:43.526Z,8.80
2023-01-06T11:46:10.594Z,8.90
2023-01-06T11:48:42.175Z,8.90
2023-01-06T11:51:09.152Z,8.90
2023-01-06T11:53:38.390Z,9.00
2023-01-06T11:56:23.832Z,9.00
2023-01-06T11:59:08.487Z,9.00
2023-01-06T12:01:47.495Z,9.00
2023-01-06T12:04:26.696Z,9.00
2023-01-06T12:06:58.869Z,9.10
2023-01-06T12:09:32.443Z,9.10
2023-01-06T12:12:07.651Z,9.10
2023-01-06T12:14:36.709Z,9.10
2023-01-06T12:17:25.307Z,9.00
2023-01-06T12:19:56.275Z,9.00
2023-01-06T12:22:40.530Z,9.00
2023-01-06T12:25:21.434Z,9.10
2023-01-06T12:27:58.432Z,9.20
2023-01-06T12:30:39.155Z,9.20
2023-01-06T12:33:30.524Z,9.30
2023-01-06T12:36:03.431Z,9.30
2023-01-06T12:38:53.683Z,9.30
2023-01-06T12:41:30.459Z,9.40
2023-01-06T12:44:18.377Z,9.40
2023-01-06T12:47:05.400Z,9.30
2023-01-06T12:49:39.303Z,9.30
2023-01-06T12:52:15.474Z,9.20
2023-01-06T12:54:55.473Z,9.20
2023-01-06T12:57:38.378Z,9.20
2023-01-06T13:00:26.667Z,9.30
2023-01-06T13:03:14.888Z,9.20
2023-01-06T13:06:05.426Z,9.10
2023-01-06T13:09:04.916Z,9.10
2023-01-06T13:11:56.170Z,9.00
2023-01-06T13:14:29.078Z,8.90
2023-01-06T13:17:15.584Z,8.90
2023-01-06T13:19:46.898Z,8.90
2023-01-06T13:22:44.737Z,8.80
2023-01-06T13:25:25.168Z,8.80
2023-01-06T13:28:12.911Z,8.80
2023-01-06T13:31:02.470Z,8.80
2023-01-06T13:33:53.407Z,8.80
2023-01-06T13:36:54.524Z,8.80
2023-01-06T13:39:26.582Z,8.80
2023-01-06T13:41:56.028Z,8.80
2023-01-06T13:44:25.913Z,8.90
2023-01-06T13:46:56.346Z,8.80
2023-01-06T13:49:23.433Z,8.80
2023-01-06T13:51:50.530Z,8.80
2023-01-06T13:54:40.053Z,8.80
2023-01-06T13:57:22.117Z,8.80
2023-01-06T13:59:49.871Z,8.70
2023-01-06T14:02:34.801Z,8.70
2023-01-06T14:05:02.391Z,8.70
2023-01-06T14:07:41.288Z,8.70
2023-01-06T14:10:34.341Z,8.70
2023-01-06T14:13:02.651Z,8.70
2023-01-06T14:15:33.973Z,8.70
2023-01-06T14:18:01.848Z,8.70
2023-01-06T14:20:37.276Z,8.70
2023-01-06T14:23:14.545Z,8.70
2023-01-06T14:25:42.973Z,8.70
2023-01-06T14:28:22.095Z,8.70
2023-01-06T14:30:50.486Z,8.70
2023-01-06T14:33:31.825Z,8.70
2023-01-06T14:36:16.028Z,8.70
2023-01-06T14:38:54.802Z,8.70
2023-01-06T14:41:45.680Z,8.70
2023-01-06T14:44:18.018Z,8.70
2023-01-06T14:46:50.528Z,8.60
2023-01-06T14:49:27.650Z,8.60
2023-01-06T14:51:55.806Z,8.60
2023-01-06T14:54:36.974Z,8.60
2023-01-06T14:57:03.913Z,8.60
2023-01-06T14:59:30.819Z,8.60
2023-01-06T15:02:01.088Z,8.60
2023-01-06T15:04:33.159Z,8.60
2023-01-06T15:07:18.636Z,8.50
2023-01-06T15:09:46.811Z,8.50
2023-01-06T15:12:27.504Z,8.50
2023-01-06T15:14:54.481Z,8.50
2023-01-06T15:17:21.417Z,8.50
2023-01-06T15:19:49.640Z,8.50
2023-01-06T15:22:20.244Z,8.50
2023-01-06T15:24:47.723Z,8.50
2023-01-06T15:27:17.549Z,8.40
2023-01-06T15:29:54.316Z,8.40
2023-01-06T15:32:22.327Z,8.40
2023-01-06T15:34:51.447Z,8.40
2023-01-06T15:37:23.159Z,8.40
2023-01-06T15:39:50.478Z,8.40
2023-01-06T15:42:21.696Z,8.40
2023-01-06T15:44:59.519Z,8.40
2023-01-06T15:47:34.321Z,8.40
2023-01-06T15:50:04.210Z,8.40
2023-01-06T15:52:48.885Z,8.40
2023-01-06T15:55:28.567Z,8.40
2023-01-06T15:58:08.205Z,8.40
2023-01-06T16:00:49.703Z,8.40
2023-01-06T16:03:21.202Z,8.40
2023-01-06T16:05:51.063Z,8.40
2023-01-06T16:08:27.764Z,8.40
2023-01-06T16:11:16.816Z,8.30
2023-01-06T16:13:57.811Z,8.30
2023-01-06T16:16:33.588Z,8.30
2023-01-06T16:19:16.201Z,8.30
2023-01-06T16:21:44.114Z,8.30
2023-01-06T16:24:40.450Z,8.30
2023-01-06T16:27:07.246Z,8.20
2023-01-06T16:29:35.988Z,8.20
2023-01-06T16:32:28.915Z,8.20
2023-01-06T16:35:01.286Z,8.20
2023-01-06T16:37:32.553Z,8.20
2023-01-06T16:39:59.767Z,8.20
2023-01-06T16:42:40.619Z,8.10
2023-01-06T16:45:09.480Z,8.10
2023-01-06T16:47:36.192Z,8.10
2023-01-06T16:50:26.975Z,8.00
2023-01-06T16:53:18.593Z,8.00
2023-01-06T16:55:45.787Z,7.90
2023-01-06T16:58:18.738Z,7.90
2023-01-06T17:00:51.504Z,7.80
2023-01-06T17:03:34.623Z,7.80
2023-01-06T17:06:01.237Z,7.70
2023-01-06T17:08:34.123Z,7.70
2023-01-06T17:11:02.565Z,7.70
2023-01-06T17:13:35.535Z,7.60
2023-01-06T17:16:14.205Z,7.60
2023-01-06T17:18:59.526Z,7.60
2023-01-06T17:21:34.536Z,7.60
2023-01-06T17:24:10.966Z,7.60
2023-01-06T17:26:38.351Z,7.50
2023-01-06T17:29:12.989Z,7.50
2023-01-06T17:31:48.114Z,7.50
2023-01-06T17:34:17.724Z,7.40
2023-01-06T17:36:51.596Z,7.40
2023-01-06T17:39:35.941Z,7.50
2023-01-06T17:42:24.430Z,7.50
2023-01-06T17:44:56.597Z,7.50
2023-01-06T17:47:23.672Z,7.60
2023-01-06T17:49:59.833Z,7.60
2023-01-06T17:52:36.121Z,7.70
2023-01-06T17:55:38.130Z,7.70
2023-01-06T17:58:19.398Z,7.80
2023-01-06T18:00:46.472Z,7.80
2023-01-06T18:03:25.899Z,7.90
2023-01-06T18:06:08.415Z,7.90
2023-01-06T18:08:37.569Z,7.90
2023-01-06T18:11:10.398Z,7.90
2023-01-06T18:13:39.755Z,7.90
2023-01-06T18:16:16.452Z,8.00
2023-01-06T18:18:43.144Z,8.00
2023-01-06T18:21:18.388Z,8.00
2023-01-06T18:23:50.625Z,8.00
2023-01-06T18:26:26.575Z,8.00
2023-01-06T18:29:20.584Z,8.00
2023-01-06T18:31:49.641Z,8.00
2023-01-06T18:34:31.757Z,8.10
2023-01-06T18:37:00.202Z,8.10
2023-01-06T18:39:44.622Z,8.10
2023-01-06T18:42:22.766Z,8.00
2023-01-06T18:44:51.466Z,8.00
2023-01-06T18:47:20.746Z,8.00
2023-01-06T18:49:48.059Z,8.00
2023-01-06T18:52:40.288Z,8.00
2023-01-06T18:55:18.045Z,8.00
2023-01-06T18:57:45.903Z,7.90
2023-01-06T19:00:33.155Z,7.90
2023-01-06T19:03:29.237Z,7.90
2023-01-06T19:06:08.539Z,7.90
2023-01-06T19:08:38.070Z,7.90
2023-01-06T19:11:13.583Z,7.90
2023-01-06T19:13:40.254Z,7.90
2023-01-06T19:16:29.470Z,7.90
2023-01-06T19:19:26.926Z,7.90
2023-01-06T19:22:00.870Z,7.90
2023-01-06T19:24:27.519Z,7.90
2023-01-06T19:26:55.265Z,7.90
2023-01-06T19:29:26.896Z,7.90
2023-01-06T19:31:56.077Z,8.00
2023-01-06T19:34:23.444Z,8.00
2023-01-06T19:36:54.422Z,8.00
2023-01-06T19:39:21.332Z,8.00
2023-01-06T19:41:48.718Z,8.00
2023-01-06T19:44:15.495Z,8.00
2023-01-06T19:46:44.496Z,8.00
2023-01-06T19:49:18.741Z,8.00
2023-01-06T19:51:55.512Z,8.00
2023-01-06T19:54:41.669Z,8.00
2023-01-06T19:57:28.000Z,8.00
2023-01-06T19:59:57.405Z,8.00
2023-01-06T20:02:30.361Z,8.00
2023-01-06T20:04:57.463Z,8.00
2023-01-06T20:07:24.129Z,8.00
2023-01-06T20:09:51.628Z,7.90
2023-01-06T20:12:18.428Z,8.00
2023-01-06T20:14:45.282Z,8.00
2023-01-06T20:17:12.531Z,8.00
2023-01-06T20:19:39.381Z,8.00
2023-01-06T20:22:06.028Z,7.90
2023-01-06T20:24:32.691Z,7.90
2023-01-06T20:26:59.365Z,7.80
2023-01-06T20:29:26.021Z,7.80
2023-01-06T20:31:52.739Z,7.70
2023-01-06T20:34:19.463Z,7.70
2023-01-06T20:36:46.087Z,7.70
2023-01-06T20:39:15.079Z,7.70
2023-01-06T20:41:41.908Z,7.70
2023-01-06T20:44:08.562Z,7.60
2023-01-06T20:46:35.242Z,7.80
2023-01-06T20:49:01.878Z,7.60
2023-01-06T20:51:28.545Z,7.60
2023-01-06T20:53:55.209Z,7.60
2023-01-06T20:56:21.902Z,7.60
2023-01-06T20:58:48.584Z,7.60
2023-01-06T21:01:15.376Z,7.60
2023-01-06T21:03:42.089Z,7.60
2023-01-06T21:06:08.886Z,7.60
2023-01-06T21:08:35.563Z,7.70
2023-01-06T21:11:02.221Z,7.70
2023-01-06T21:13:28.832Z,7.70
2023-01-06T21:15:55.492Z,7.80
2023-01-06T21:18:22.394Z,7.80
2023-01-06T21:20:49.443Z,7.80
2023-01-06T21:23:16.459Z,7.80
2023-01-06T21:25:43.149Z,7.80
2023-01-06T21:28:09.851Z,7.80
2023-01-06T21:30:36.798Z,7.80
2023-01-06T21:33:03.525Z,7.80
2023-01-06T21:35:30.207Z,7.80
2023-01-06T21:37:56.922Z,7.80
2023-01-06T21:40:23.613Z,7.80
2023-01-06T21:43:08.439Z,7.80
2023-01-06T21:45:40.132Z,7.80
2023-01-06T21:48:07.847Z,7.80
2023-01-06T21:50:44.437Z,7.80
2023-01-06T21:53:11.786Z,7.80
2023-01-06T21:55:38.697Z,7.80
2023-01-06T21:58:05.617Z,7.80
2023-01-06T22:00:32.404Z,7.80
2023-01-06T22:02:59.226Z,7.80
2023-01-06T22:05:25.991Z,7.80
2023-01-06T22:07:53.342Z,7.80
2023-01-06T22:10:21.781Z,7.80
2023-01-06T22:12:50.226Z,7.80
2023-01-06T22:15:17.155Z,7.80
2023-01-06T22:17:43.858Z,7.80
2023-01-06T22:20:11.402Z,7.80
2023-01-06T22:22:39.102Z,7.80
2023-01-06T22:25:06.575Z,7.80
2023-01-06T22:27:33.321Z,7.80
2023-01-06T22:30:00.101Z,7.80
2023-01-06T22:32:28.267Z,7.80
2023-01-06T22:34:54.998Z,7.80
2023-01-06T22:37:21.680Z,7.80
2023-01-06T22:39:49.441Z,7.80
2023-01-06T22:42:16.191Z,7.80
2023-01-06T22:44:42.876Z,7.80
2023-01-06T22:47:09.527Z,7.80
2023-01-06T22:49:37.205Z,7.80
2023-01-06T22:52:04.177Z,7.80
2023-01-06T22:54:30.886Z,7.80
2023-01-06T22:56:57.754Z,7.80
2023-01-06T22:59:24.418Z,7.80
2023-01-06T23:01:51.202Z,7.80
2023-01-06T23:04:17.915Z,7.80
2023-01-06T23:06:44.870Z,7.80
2023-01-06T23:09:11.539Z,7.80
2023-01-06T23:11:41.550Z,7.80
2023-01-06T23:14:10.067Z,7.80
2023-01-06T23:16:37.704Z,7.80
2023-01-06T23:19:04.998Z,7.80
2023-01-06T23:21:32.278Z,7.80
2023-01-06T23:23:59.425Z,7.80
2023-01-06T23:26:29.502Z,7.80
2023-01-06T23:28:57.400Z,7.80
2023-01-06T23:31:28.743Z,7.80
2023-01-06T23:33:57.634Z,7.90
2023-01-06T23:36:27.129Z,7.90
2023-01-06T23:38:55.355Z,7.90
2023-01-06T23:41:24.202Z,7.90
2023-01-06T23:43:51.325Z,7.90
2023-01-06T23:46:20.267Z,7.80
2023-01-06T23:48:47.977Z,7.80
2023-01-06T23:51:15.721Z,7.80
2023-01-06T23:53:42.874Z,7.80
2023-01-06T23:56:23.748Z,7.80
2023-01-06T23:58:53.617Z,7.80
